Time;durP1;ratioP1;P1;durP2;ratioP2;P2;SDS_P1;SDS_P2;PMS_P1;PMS_P2;Temp;Humidity;BMP_temperature;BMP_pressure;BME280_temperature;BME280_humidity;BME280_pressure;Samples;Min_cycle;Max_cycle;Signal;HPM_P1;HPM_P2
2024/01/12 00:01:47;;;;;;;7.80;3.30;;;15.40;64.20;;;;;;4204540;28;20051;-45
2024/01/12 00:04:28;;;;;;;8.02;3.67;;;15.40;64.20;;;;;;4205813;28;20075;-43
2024/01/12 00:07:09;;;;;;;12.90;3.72;;;15.30;64.20;;;;;;4205867;27;20048;-46
2024/01/12 00:09:50;;;;;;;12.27;4.05;;;15.30;64.60;;;;;;4204970;28;20043;-44
2024/01/12 00:12:31;;;;;;;7.38;2.92;;;15.30;64.60;;;;;;4217523;27;20062;-43
2024/01/12 00:15:12;;;;;;;13.45;3.75;;;15.40;64.40;;;;;;4222275;27;20066;-44
2024/01/12 00:17:54;;;;;;;7.28;3.22;;;15.40;64.10;;;;;;4220895;27;20062;-43
2024/01/12 00:20:36;;;;;;;10.55;3.63;;;15.50;64.00;;;;;;4221356;27;20407;-52
2024/01/12 00:23:17;;;;;;;6.45;3.05;;;15.50;64.00;;;;;;4195308;27;20051;-48
2024/01/12 00:25:59;;;;;;;5.50;2.70;;;15.60;63.70;;;;;;4204808;27;20399;-51
2024/01/12 00:28:40;;;;;;;7.35;2.50;;;15.50;63.70;;;;;;4221691;27;20051;-44
2024/01/12 00:31:21;;;;;;;8.85;2.40;;;15.50;63.90;;;;;;4221901;27;20095;-44
2024/01/12 00:34:04;;;;;;;12.63;2.10;;;15.60;63.70;;;;;;4219472;27;20054;-44
2024/01/12 00:36:46;;;;;;;10.63;2.42;;;15.70;63.50;;;;;;4220174;27;20050;-45
2024/01/12 00:39:27;;;;;;;7.50;2.15;;;15.70;63.20;;;;;;4221684;27;20054;-44
2024/01/12 00:42:09;;;;;;;7.22;2.60;;;15.70;63.20;;;;;;4221310;27;20059;-44
2024/01/12 00:44:50;;;;;;;9.00;2.70;;;15.70;63.40;;;;;;4221247;27;20184;-45
2024/01/12 00:47:31;;;;;;;8.02;1.92;;;15.80;63.00;;;;;;4220968;27;20050;-44
2024/01/12 00:50:13;;;;;;;14.50;2.70;;;15.90;63.60;;;;;;4211867;27;20055;-43
2024/01/12 00:52:55;;;;;;;6.05;1.90;;;15.90;62.50;;;;;;4204380;28;20051;-43
2024/01/12 00:55:36;;;;;;;13.13;2.15;;;15.90;62.60;;;;;;4204686;28;20047;-43
2024/01/12 00:58:17;;;;;;;6.72;2.15;;;15.90;62.70;;;;;;4204745;28;20407;-46
2024/01/12 01:00:58;;;;;;;14.65;2.92;;;16.00;62.50;;;;;;4204697;28;20108;-48
2024/01/12 01:03:40;;;;;;;7.82;2.00;;;16.00;62.30;;;;;;4203740;28;20407;-47
2024/01/12 01:06:22;;;;;;;13.02;2.00;;;16.10;62.40;;;;;;4212336;27;20058;-47
2024/01/12 01:09:03;;;;;;;10.68;3.10;;;16.00;62.10;;;;;;4202860;27;20051;-47
2024/01/12 01:11:44;;;;;;;9.35;1.67;;;16.00;62.10;;;;;;4204478;28;20181;-47
2024/01/12 01:14:26;;;;;;;6.78;2.03;;;16.00;62.20;;;;;;4204248;28;20047;-47
2024/01/12 01:17:07;;;;;;;13.65;2.47;;;16.00;62.30;;;;;;4204468;28;20051;-46
2024/01/12 01:19:47;;;;;;;9.30;2.25;;;16.00;62.30;;;;;;4204907;28;20392;-47
2024/01/12 01:22:33;;;;;;;14.98;2.75;;;16.00;62.40;;;;;;4218397;27;20191;-47
2024/01/12 01:25:14;;;;;;;7.60;2.30;;;16.00;62.60;;;;;;4220867;27;20050;-48
2024/01/12 01:27:55;;;;;;;9.75;2.50;;;16.00;62.50;;;;;;4220066;28;20627;-44
2024/01/12 01:30:36;;;;;;;11.27;2.63;;;15.90;62.50;;;;;;4221423;27;20426;-43
2024/01/12 01:33:17;;;;;;;10.90;2.03;;;16.00;62.50;;;;;;4220400;27;20600;-44
2024/01/12 01:35:58;;;;;;;6.47;2.25;;;16.10;61.60;;;;;;4221083;27;20143;-42
2024/01/12 01:38:41;;;;;;;14.23;2.25;;;16.10;62.10;;;;;;4215183;27;20085;-43
2024/01/12 01:41:22;;;;;;;6.90;1.92;;;16.10;62.00;;;;;;4202406;27;20600;-43
2024/01/12 01:44:03;;;;;;;4.78;2.00;;;16.10;62.20;;;;;;4201435;28;20066;-43
2024/01/12 01:46:45;;;;;;;10.35;2.13;;;16.00;62.30;;;;;;4202782;28;20046;-43
2024/01/12 01:49:27;;;;;;;5.43;2.03;;;16.00;63.50;;;;;;4202057;28;20054;-44
2024/01/12 01:52:10;;;;;;;8.55;2.17;;;16.00;62.50;;;;;;4183676;28;20809;-47
2024/01/12 01:54:53;;;;;;;14.48;2.17;;;16.00;62.40;;;;;;4185930;27;20051;-46
2024/01/12 01:57:35;;;;;;;8.50;1.90;;;16.00;63.40;;;;;;4191480;27;20075;-47
2024/01/12 02:00:18;;;;;;;9.05;2.22;;;16.00;62.70;;;;;;4182935;28;20059;-49
2024/01/12 02:03:00;;;;;;;9.18;2.45;;;16.00;62.50;;;;;;4183578;28;20064;-47
2024/01/12 02:05:43;;;;;;;7.53;2.38;;;16.00;62.40;;;;;;4187069;28;20048;-47
2024/01/12 02:08:25;;;;;;;11.88;2.97;;;16.00;62.40;;;;;;4203573;28;20051;-48
2024/01/12 02:11:07;;;;;;;10.27;2.15;;;16.10;61.70;;;;;;4204396;27;20061;-47
2024/01/12 02:13:49;;;;;;;13.75;2.70;;;16.20;61.40;;;;;;4203700;28;20586;-47
2024/01/12 02:16:30;;;;;;;9.10;2.35;;;16.30;61.90;;;;;;4203468;28;20173;-47
2024/01/12 02:19:11;;;;;;;4.90;1.75;;;16.30;61.80;;;;;;4203684;28;20059;-47
2024/01/12 02:21:53;;;;;;;9.60;2.08;;;16.30;61.70;;;;;;4203509;27;20105;-49
2024/01/12 02:24:34;;;;;;;7.70;2.67;;;16.40;61.50;;;;;;4202437;28;20051;-48
2024/01/12 02:27:15;;;;;;;7.10;1.77;;;16.50;61.30;;;;;;4203725;28;20494;-47
2024/01/12 02:29:58;;;;;;;12.40;2.95;;;16.50;61.20;;;;;;4203568;27;20063;-48
2024/01/12 02:32:39;;;;;;;10.10;2.72;;;16.50;61.20;;;;;;4203353;27;20058;-49
2024/01/12 02:35:20;;;;;;;6.60;2.17;;;16.40;61.30;;;;;;4203930;27;20047;-47
2024/01/12 02:38:02;;;;;;;7.65;2.42;;;16.50;61.40;;;;;;4199354;27;20051;-48
2024/01/12 02:40:43;;;;;;;7.70;2.50;;;16.50;61.30;;;;;;4203403;27;20402;-43
2024/01/12 02:43:24;;;;;;;7.68;2.28;;;16.50;61.20;;;;;;4214398;27;20054;-43
2024/01/12 02:46:05;;;;;;;7.43;2.20;;;16.50;61.20;;;;;;4205379;27;20055;-43
2024/01/12 02:48:46;;;;;;;5.27;2.20;;;16.50;61.20;;;;;;4185666;28;20048;-43
2024/01/12 02:51:28;;;;;;;11.25;2.38;;;16.60;61.10;;;;;;4202826;28;20454;-43
2024/01/12 02:54:10;;;;;;;9.88;2.35;;;16.60;60.90;;;;;;4204926;27;20047;-43
2024/01/12 02:56:51;;;;;;;5.15;2.60;;;16.60;60.70;;;;;;4205512;27;20197;-43
2024/01/12 02:59:32;;;;;;;7.65;2.33;;;16.60;60.60;;;;;;4205293;28;20670;-47
2024/01/12 03:02:13;;;;;;;9.77;2.50;;;16.60;60.30;;;;;;4221501;27;20058;-47
2024/01/12 03:04:55;;;;;;;7.45;2.47;;;16.60;61.00;;;;;;4223180;27;20050;-50
2024/01/12 03:07:37;;;;;;;13.48;2.80;;;16.60;61.00;;;;;;4213565;27;20054;-44
2024/01/12 03:10:20;;;;;;;6.95;2.63;;;16.50;61.00;;;;;;4206715;28;20622;-43
2024/01/12 03:13:00;;;;;;;7.40;2.10;;;16.50;61.10;;;;;;4206451;28;20075;-43
2024/01/12 03:15:42;;;;;;;7.45;2.92;;;16.50;61.40;;;;;;4212813;27;20054;-45
2024/01/12 03:18:23;;;;;;;5.63;3.22;;;16.40;61.30;;;;;;4220719;27;20059;-46
2024/01/12 03:21:04;;;;;;;7.85;2.55;;;16.30;61.70;;;;;;4206250;28;20160;-44
2024/01/12 03:23:45;;;;;;;;;;;16.30;62.00;;;;;;4206152;28;20059;-44
2024/01/12 03:26:28;;;;;;;14.18;3.38;;;16.30;62.10;;;;;;4205753;28;19927;-44
2024/01/12 03:29:08;;;;;;;10.88;2.42;;;16.30;62.10;;;;;;4189331;28;20526;-44
2024/01/12 03:31:49;;;;;;;8.60;2.83;;;16.20;62.20;;;;;;4192522;28;20052;-46
2024/01/12 03:34:30;;;;;;;7.82;2.35;;;16.20;62.40;;;;;;4205820;28;20051;-44
2024/01/12 03:37:11;;;;;;;8.45;3.03;;;16.20;62.40;;;;;;4206182;28;20055;-46
2024/01/12 03:39:52;;;;;;;11.65;2.33;;;16.20;62.40;;;;;;4196035;28;20060;-43
2024/01/12 03:42:35;;;;;;;11.65;3.55;;;16.20;62.60;;;;;;4189344;28;20572;-49
2024/01/12 03:45:16;;;;;;;7.22;2.53;;;16.10;62.70;;;;;;4187981;28;20046;-48
2024/01/12 03:47:57;;;;;;;5.40;2.42;;;16.20;63.30;;;;;;4193976;28;20442;-44
2024/01/12 03:50:38;;;;;;;5.57;2.38;;;16.40;62.10;;;;;;4187978;28;20075;-46
2024/01/12 03:53:19;;;;;;;7.45;2.13;;;16.50;61.70;;;;;;4188622;28;20189;-46
2024/01/12 03:56:00;;;;;;;11.68;3.58;;;16.50;62.30;;;;;;4188873;28;20059;-47
2024/01/12 03:58:43;;;;;;;9.52;2.70;;;16.50;61.40;;;;;;4203621;27;20194;-46
2024/01/12 04:01:24;;;;;;;5.97;2.33;;;16.50;61.40;;;;;;4204824;27;20201;-45
2024/01/12 04:04:06;;;;;;;10.27;3.45;;;16.50;61.50;;;;;;4189437;28;20059;-45
2024/01/12 04:06:47;;;;;;;3.80;2.40;;;16.40;61.60;;;;;;4204799;27;20205;-44
2024/01/12 04:09:28;;;;;;;10.55;2.28;;;16.30;61.70;;;;;;4203360;27;20055;-44
2024/01/12 04:12:10;;;;;;;11.23;2.90;;;16.30;62.00;;;;;;4209225;27;20107;-44
2024/01/12 04:14:52;;;;;;;9.48;3.38;;;16.20;62.20;;;;;;4206175;27;20104;-43
2024/01/12 04:17:33;;;;;;;13.27;3.17;;;16.20;62.30;;;;;;4187471;28;20506;-44
2024/01/12 04:20:15;;;;;;;7.07;2.95;;;16.10;62.40;;;;;;4205191;27;20402;-43
2024/01/12 04:22:55;;;;;;;10.10;2.80;;;16.10;62.80;;;;;;4204790;28;20063;-43
2024/01/12 04:25:36;;;;;;;13.77;3.03;;;16.10;62.80;;;;;;4206759;27;20055;-45
2024/01/12 04:28:17;;;;;;;6.55;2.58;;;16.30;63.60;;;;;;4211458;27;20081;-43
2024/01/12 04:31:02;;;;;;;6.03;2.78;;;16.40;62.30;;;;;;4204660;28;20526;-43
2024/01/12 04:33:42;;;;;;;8.18;2.33;;;16.50;61.60;;;;;;4204698;28;20518;-43
2024/01/12 04:36:24;;;;;;;4.82;2.20;;;16.60;61.40;;;;;;4204216;28;20367;-43
2024/01/12 04:39:05;;;;;;;;;;;16.70;61.40;;;;;;4184392;28;20105;-43
2024/01/12 04:41:46;;;;;;;13.00;3.47;;;16.70;61.20;;;;;;4183256;28;19989;-43
2024/01/12 04:44:27;;;;;;;4.05;2.00;;;16.80;60.90;;;;;;4196530;27;20596;-48
2024/01/12 04:47:10;;;;;;;18.00;2.60;;;16.70;60.70;;;;;;4187965;28;20052;-49
2024/01/12 04:49:51;;;;;;;11.38;2.88;;;16.70;60.70;;;;;;4188083;28;20569;-49
2024/01/12 04:52:32;;;;;;;18.27;2.75;;;16.80;60.80;;;;;;4194728;27;20059;-47
2024/01/12 04:55:13;;;;;;;9.23;2.97;;;16.70;60.90;;;;;;4204548;28;20821;-52
2024/01/12 04:57:54;;;;;;;13.77;3.80;;;16.80;60.80;;;;;;4187582;28;20080;-50
2024/01/12 05:00:35;;;;;;;12.98;2.30;;;16.90;60.60;;;;;;4188729;27;20056;-51
2024/01/12 05:03:17;;;;;;;10.20;2.20;;;16.90;60.40;;;;;;4204035;28;20055;-48
2024/01/12 05:05:59;;;;;;;6.15;2.17;;;16.90;60.40;;;;;;4203995;28;20059;-49
2024/01/12 05:08:40;;;;;;;10.18;2.03;;;16.90;60.50;;;;;;4203897;28;20051;-47
2024/01/12 05:11:22;;;;;;;8.95;2.03;;;16.80;60.60;;;;;;4204626;28;20059;-49
2024/01/12 05:14:03;;;;;;;12.82;2.40;;;16.70;60.90;;;;;;4202652;28;20047;-49
2024/01/12 05:16:44;;;;;;;10.07;2.45;;;16.70;61.20;;;;;;4208439;27;20539;-51
2024/01/12 05:19:26;;;;;;;12.43;2.90;;;16.60;61.20;;;;;;4219581;27;20123;-49
2024/01/12 05:22:07;;;;;;;9.32;3.13;;;16.60;61.40;;;;;;4206850;27;20411;-47
2024/01/12 05:24:48;;;;;;;11.07;3.20;;;16.50;61.60;;;;;;4207304;27;20072;-49
2024/01/12 05:27:30;;;;;;;15.68;2.40;;;16.50;61.70;;;;;;4220150;27;20169;-47
2024/01/12 05:30:12;;;;;;;7.70;3.28;;;16.50;61.70;;;;;;4220881;27;20124;-50
2024/01/12 05:32:53;;;;;;;12.30;3.03;;;16.40;61.80;;;;;;4202899;27;20499;-49
2024/01/12 05:35:36;;;;;;;17.48;3.45;;;16.40;62.10;;;;;;4202668;28;20058;-47
2024/01/12 05:38:17;;;;;;;17.67;3.55;;;16.30;62.10;;;;;;4203519;28;20089;-50
2024/01/12 05:40:58;;;;;;;13.65;2.58;;;16.20;62.30;;;;;;4203772;28;20055;-48
2024/01/12 05:43:40;;;;;;;12.13;2.85;;;16.10;62.60;;;;;;4203579;28;20193;-47
2024/01/12 05:46:20;;;;;;;13.95;3.13;;;16.10;63.20;;;;;;4204122;28;20096;-51
2024/01/12 05:49:04;;;;;;;11.70;2.67;;;16.10;63.30;;;;;;4203742;28;20059;-50
2024/01/12 05:51:47;;;;;;;12.10;2.85;;;16.20;63.30;;;;;;4203568;28;20132;-48
2024/01/12 05:54:28;;;;;;;17.38;3.35;;;16.30;62.80;;;;;;4203459;28;20055;-49
2024/01/12 05:57:10;;;;;;;10.52;2.38;;;16.50;62.30;;;;;;4203676;28;20059;-48
2024/01/12 05:59:51;;;;;;;;;;;16.60;62.60;;;;;;4203722;28;20063;-47
2024/01/12 06:02:32;;;;;;;18.65;3.97;;;16.70;61.50;;;;;;4203348;28;20058;-47
2024/01/12 06:05:13;;;;;;;9.82;3.17;;;16.70;61.30;;;;;;4203804;28;20051;-47
2024/01/12 06:07:55;;;;;;;14.32;2.95;;;16.80;61.10;;;;;;4204136;28;20074;-47
2024/01/12 06:10:36;;;;;;;10.77;3.58;;;16.80;60.80;;;;;;4203555;28;20506;-48
2024/01/12 06:13:17;;;;;;;9.55;2.80;;;16.80;60.80;;;;;;4213137;28;20145;-48
2024/01/12 06:15:58;;;;;;;11.10;3.20;;;16.90;60.90;;;;;;4201974;28;20055;-49
2024/01/12 06:18:39;;;;;;;11.00;3.17;;;16.90;60.80;;;;;;4203516;28;20063;-52
2024/01/12 06:21:20;;;;;;;11.30;2.72;;;16.90;60.60;;;;;;4203140;28;20059;-48
2024/01/12 06:24:02;;;;;;;13.40;3.20;;;16.90;61.10;;;;;;4203796;28;20055;-47
2024/01/12 06:26:43;;;;;;;10.32;3.42;;;16.90;61.50;;;;;;4202789;28;20497;-47
2024/01/12 06:29:24;;;;;;;12.20;3.92;;;17.00;61.00;;;;;;4206284;28;20058;-49
2024/01/12 06:32:06;;;;;;;15.45;4.15;;;17.10;60.80;;;;;;4206974;28;20614;-47
2024/01/12 06:34:47;;;;;;;7.55;2.67;;;17.10;60.60;;;;;;4208306;28;20047;-48
2024/01/12 06:37:28;;;;;;;14.13;2.55;;;17.10;61.50;;;;;;4211842;27;20059;-48
2024/01/12 06:40:12;;;;;;;10.85;2.92;;;17.10;60.50;;;;;;4190632;28;20051;-50
2024/01/12 06:42:53;;;;;;;14.68;3.22;;;17.10;60.50;;;;;;4206000;27;20084;-47
2024/01/12 06:45:34;;;;;;;;;;;17.00;60.60;;;;;;4224133;27;20054;-49
2024/01/12 06:48:15;;;;;;;14.02;4.57;;;16.90;61.00;;;;;;4222032;27;19926;-48
2024/01/12 06:50:56;;;;;;;16.05;2.97;;;16.80;61.30;;;;;;4206944;27;20062;-48
2024/01/12 06:53:37;;;;;;;17.73;3.13;;;16.70;61.60;;;;;;4206125;27;20781;-49
2024/01/12 06:56:22;;;;;;;14.40;3.15;;;16.60;62.00;;;;;;4220809;27;20502;-45
2024/01/12 06:59:03;;;;;;;7.00;2.53;;;16.50;62.20;;;;;;4223245;27;20714;-48
2024/01/12 07:01:45;;;;;;;10.98;2.60;;;16.40;62.40;;;;;;4223107;27;20149;-47
2024/01/12 07:04:25;;;;;;;16.08;2.67;;;16.40;62.70;;;;;;4223413;27;20391;-48
2024/01/12 07:07:06;;;;;;;11.15;3.05;;;16.30;62.90;;;;;;4223037;27;20185;-48
2024/01/12 07:09:47;;;;;;;11.65;2.80;;;16.40;62.90;;;;;;4221533;27;20090;-50
2024/01/12 07:12:30;;;;;;;13.40;3.30;;;16.50;62.60;;;;;;4220179;27;20070;-47
2024/01/12 07:15:11;;;;;;;12.52;3.10;;;16.60;62.10;;;;;;4205945;28;20055;-45
2024/01/12 07:17:53;;;;;;;15.43;3.15;;;16.80;61.60;;;;;;4205933;28;20098;-48
2024/01/12 07:20:34;;;;;;;7.63;2.60;;;17.00;61.90;;;;;;4205697;28;20054;-45
2024/01/12 07:23:15;;;;;;;11.77;2.58;;;17.10;60.50;;;;;;4189131;28;20190;-43
2024/01/12 07:25:56;;;;;;;10.43;2.83;;;17.10;59.60;;;;;;4205580;27;20066;-44
2024/01/12 07:28:38;;;;;;;14.70;2.60;;;17.10;59.40;;;;;;4216855;27;20074;-43
2024/01/12 07:31:19;;;;;;;11.30;4.18;;;17.10;59.40;;;;;;4212091;27;20096;-43
2024/01/12 07:34:00;;;;;;;18.67;3.65;;;17.10;59.30;;;;;;4222378;27;20051;-45
2024/01/12 07:36:42;;;;;;;10.43;2.75;;;17.10;59.10;;;;;;4204191;28;20055;-44
2024/01/12 07:39:23;;;;;;;13.73;2.90;;;17.10;59.10;;;;;;4227214;27;20049;-44
2024/01/12 07:42:05;;;;;;;8.02;3.00;;;17.00;59.10;;;;;;4220199;27;20173;-45
2024/01/12 07:44:49;;;;;;;10.85;3.92;;;16.90;59.20;;;;;;4239689;27;20406;-46
2024/01/12 07:47:30;;;;;;;13.07;4.47;;;16.80;59.30;;;;;;4209677;27;20162;-44
2024/01/12 07:50:11;;;;;;;15.10;4.07;;;16.80;59.50;;;;;;4210355;27;20077;-43
2024/01/12 07:52:52;;;;;;;6.38;2.33;;;16.70;59.60;;;;;;4222471;27;20066;-44
2024/01/12 07:55:33;;;;;;;10.50;2.70;;;16.70;59.60;;;;;;4222292;27;20043;-44
2024/01/12 07:58:18;;;;;;;15.40;4.93;;;16.60;59.90;;;;;;4191334;28;20164;-45
2024/01/12 08:01:00;;;;;;;12.50;3.75;;;16.60;60.90;;;;;;4189355;28;20209;-45
2024/01/12 08:03:42;;;;;;;15.18;3.90;;;16.60;59.90;;;;;;4204399;27;20047;-43
2024/01/12 08:06:23;;;;;;;14.63;4.78;;;16.70;59.60;;;;;;4204997;27;20070;-50
2024/01/12 08:09:04;;;;;;;16.83;4.63;;;16.80;59.20;;;;;;4204503;27;20058;-47
2024/01/12 08:11:45;;;;;;;7.88;3.20;;;16.90;59.10;;;;;;4205467;27;20058;-47
2024/01/12 08:14:26;;;;;;;9.48;3.63;;;16.90;59.00;;;;;;4204457;27;20063;-50
2024/01/12 08:17:08;;;;;;;8.48;2.90;;;16.90;59.00;;;;;;4204871;27;20082;-46
2024/01/12 08:19:49;;;;;;;10.40;2.88;;;16.90;59.00;;;;;;4204550;28;20089;-49
2024/01/12 08:22:32;;;;;;;7.70;2.72;;;16.80;59.20;;;;;;4205006;28;20562;-48
2024/01/12 08:25:13;;;;;;;10.52;1.70;;;16.70;59.60;;;;;;4204811;28;20153;-49
2024/01/12 08:27:53;;;;;;;8.27;2.45;;;16.60;59.90;;;;;;4204680;28;20412;-47
2024/01/12 08:30:34;;;;;;;13.65;2.38;;;16.40;60.20;;;;;;4215017;28;20046;-47
2024/01/12 08:33:16;;;;;;;8.98;2.63;;;16.40;60.70;;;;;;4204587;28;20079;-47
2024/01/12 08:35:58;;;;;;;12.10;2.63;;;16.30;61.10;;;;;;4203557;27;20510;-49
2024/01/12 08:38:40;;;;;;;21.77;3.60;;;16.40;61.00;;;;;;4204634;28;20699;-47
2024/01/12 08:41:21;;;;;;;6.68;2.25;;;16.50;60.60;;;;;;4203934;28;20051;-49
2024/01/12 08:44:02;;;;;;;10.13;2.22;;;16.60;60.40;;;;;;4201681;27;20145;-49
2024/01/12 08:46:43;;;;;;;11.25;2.33;;;16.60;60.00;;;;;;4192779;27;20140;-51
2024/01/12 08:49:25;;;;;;;10.02;2.33;;;16.70;59.60;;;;;;4213782;27;20050;-47
2024/01/12 08:52:07;;;;;;;9.45;2.70;;;16.80;59.30;;;;;;4204323;28;20081;-50
2024/01/12 08:54:48;;;;;;;14.00;3.10;;;16.90;59.10;;;;;;4210253;27;20383;-47
2024/01/12 08:57:29;;;;;;;14.50;2.75;;;16.90;58.90;;;;;;4214918;27;20050;-49
2024/01/12 09:00:13;;;;;;;11.02;2.83;;;16.90;58.90;;;;;;4221187;27;20172;-43
2024/01/12 09:02:53;;;;;;;8.27;2.45;;;16.90;59.10;;;;;;4215063;27;20551;-44
2024/01/12 09:05:36;;;;;;;14.45;2.53;;;16.80;59.90;;;;;;4237837;27;20065;-44
2024/01/12 09:08:17;;;;;;;13.07;2.53;;;16.70;59.30;;;;;;4213104;27;20128;-44
2024/01/12 09:10:59;;;;;;;17.15;3.03;;;16.70;59.60;;;;;;4212129;27;20132;-43
2024/01/12 09:13:39;;;;;;;13.13;2.88;;;16.60;59.70;;;;;;4220455;27;20058;-43
2024/01/12 09:16:21;;;;;;;11.23;1.88;;;16.70;59.70;;;;;;4204175;28;20058;-44
2024/01/12 09:19:03;;;;;;;12.02;2.28;;;16.70;59.60;;;;;;4207421;27;20066;-44
2024/01/12 09:21:46;;;;;;;14.13;3.22;;;16.70;59.60;;;;;;4202851;28;20070;-43
2024/01/12 09:24:27;;;;;;;11.05;2.42;;;16.70;59.60;;;;;;4207238;27;20043;-45
2024/01/12 09:27:08;;;;;;;16.63;2.63;;;16.60;59.60;;;;;;4198078;28;20055;-46
2024/01/12 09:29:49;;;;;;;12.75;2.42;;;16.60;60.60;;;;;;4203254;28;20105;-45
2024/01/12 09:32:30;;;;;;;8.60;1.98;;;16.50;59.90;;;;;;4203536;28;20050;-47
2024/01/12 09:35:13;;;;;;;14.27;1.70;;;16.60;59.90;;;;;;4211124;27;20505;-49
2024/01/12 09:37:56;;;;;;;13.40;2.15;;;16.60;59.90;;;;;;4203950;28;20055;-46
2024/01/12 09:40:38;;;;;;;10.93;3.28;;;16.60;59.80;;;;;;4210480;27;20062;-46
2024/01/12 09:43:23;;;;;;;13.15;2.13;;;16.60;59.80;;;;;;4212131;27;20051;-47
2024/01/12 09:46:08;;;;;;;8.95;1.63;;;16.50;59.90;;;;;;4203767;28;20197;-47
2024/01/12 09:48:49;;;;;;;12.52;2.85;;;16.60;60.00;;;;;;4202757;27;20051;-42
2024/01/12 09:51:31;;;;;;;12.27;2.45;;;16.60;60.50;;;;;;4210141;27;20092;-42
2024/01/12 09:54:13;;;;;;;14.80;2.30;;;16.70;60.50;;;;;;4208322;27;20066;-42
2024/01/12 09:56:56;;;;;;;12.80;2.85;;;16.70;59.60;;;;;;4203488;27;20055;-45
2024/01/12 09:59:38;;;;;;;12.75;2.58;;;16.60;59.60;;;;;;4203214;27;20086;-42
2024/01/12 10:02:20;;;;;;;12.52;2.70;;;16.50;59.80;;;;;;4203422;27;20128;-41
2024/01/12 10:05:02;;;;;;;9.82;2.92;;;16.50;60.20;;;;;;4203517;28;20122;-45
2024/01/12 10:07:43;;;;;;;12.48;2.92;;;16.50;60.30;;;;;;4213237;27;20058;-42
2024/01/12 10:10:29;;;;;;;13.57;2.13;;;16.60;60.10;;;;;;4202746;28;20406;-42
2024/01/12 10:13:10;;;;;;;12.77;2.28;;;16.70;59.90;;;;;;4203114;28;20430;-42
2024/01/12 10:15:51;;;;;;;16.85;2.78;;;16.70;59.80;;;;;;4197217;28;20522;-41
2024/01/12 10:18:31;;;;;;;11.95;2.28;;;16.70;59.90;;;;;;4202354;28;20193;-43
2024/01/12 10:21:14;;;;;;;14.05;2.50;;;16.70;59.90;;;;;;4207472;27;20169;-42
2024/01/12 10:24:02;;;;;;;18.35;3.05;;;16.70;59.80;;;;;;4219869;27;20054;-42
2024/01/12 10:26:46;;;;;;;11.10;2.33;;;16.70;59.80;;;;;;4219436;27;20201;-42
2024/01/12 10:29:27;;;;;;;12.75;2.15;;;16.70;59.90;;;;;;4218647;27;20184;-41
2024/01/12 10:32:09;;;;;;;19.40;2.70;;;16.60;59.90;;;;;;4218532;27;20050;-41
2024/01/12 10:34:52;;;;;;;16.25;2.45;;;16.70;60.00;;;;;;4219361;27;20058;-42
2024/01/12 10:37:34;;;;;;;8.10;2.13;;;16.70;59.90;;;;;;4213193;27;20202;-42
2024/01/12 10:40:16;;;;;;;8.95;1.83;;;16.70;59.70;;;;;;4216201;27;20053;-44
2024/01/12 10:43:03;;;;;;;16.70;2.55;;;16.70;59.60;;;;;;4182303;28;20051;-42
2024/01/12 10:45:49;;;;;;;9.10;2.00;;;16.60;59.80;;;;;;4184175;28;20564;-42
2024/01/12 10:48:34;;;;;;;10.73;2.10;;;16.50;60.00;;;;;;4189647;27;20117;-42
2024/01/12 10:51:19;;;;;;;17.63;2.80;;;16.40;60.30;;;;;;4200584;27;20047;-68
2024/01/12 10:54:06;;;;;;;11.48;2.22;;;16.30;60.70;;;;;;4216640;27;20409;-43
2024/01/12 10:56:47;;;;;;;11.98;2.25;;;16.20;61.00;;;;;;4200263;27;20205;-42
2024/01/12 10:59:30;;;;;;;;;;;16.10;61.30;;;;;;4201315;28;20047;-42
2024/01/12 11:02:14;;;;;;;9.65;2.33;;;16.10;61.80;;;;;;4202780;27;19931;-42
2024/01/12 11:04:56;;;;;;;6.45;2.00;;;16.10;61.90;;;;;;4216035;27;20059;-42
2024/01/12 11:07:39;;;;;;;9.77;1.67;;;16.20;61.70;;;;;;4215371;27;20104;-42
2024/01/12 11:10:21;;;;;;;9.45;2.05;;;16.30;61.30;;;;;;4215750;27;20054;-42
2024/01/12 11:13:02;;;;;;;7.70;2.03;;;16.50;60.80;;;;;;4216532;27;20054;-42
2024/01/12 11:15:49;;;;;;;9.43;2.22;;;16.60;60.30;;;;;;4205643;27;20517;-42
2024/01/12 11:18:32;;;;;;;6.43;1.92;;;16.60;60.00;;;;;;4207220;27;20051;-42
2024/01/12 11:21:23;;;;;;;13.98;2.28;;;16.60;59.90;;;;;;4202497;28;20062;-41
2024/01/12 11:24:04;;;;;;;14.10;2.00;;;16.60;59.90;;;;;;4204912;28;20062;-44
2024/01/12 11:26:46;;;;;;;11.48;2.50;;;16.60;60.00;;;;;;4207481;28;20525;-45
2024/01/12 11:29:30;;;;;;;;;;;16.60;60.30;;;;;;4206602;28;20494;-45
2024/01/12 11:32:16;;;;;;;18.63;2.35;;;16.50;60.80;;;;;;4204323;28;19968;-45
2024/01/12 11:35:12;;;;;;;11.95;2.30;;;16.50;61.00;;;;;;4212301;27;20063;-45
2024/01/12 11:38:01;;;;;;;10.20;2.20;;;16.50;60.80;;;;;;4221788;27;20050;-45
2024/01/12 11:40:44;;;;;;;10.00;1.95;;;16.60;60.70;;;;;;4209568;28;20051;-47
2024/01/12 11:43:26;;;;;;;9.18;2.33;;;16.60;60.40;;;;;;4212843;27;20050;-45
2024/01/12 11:46:07;;;;;;;13.55;2.30;;;16.70;60.20;;;;;;4221874;27;20069;-47
2024/01/12 11:48:52;;;;;;;18.30;3.00;;;16.80;60.00;;;;;;4221349;27;20046;-42
2024/01/12 11:51:33;;;;;;;14.75;2.80;;;16.70;59.90;;;;;;4220673;27;20059;-41
2024/01/12 11:54:17;;;;;;;7.95;2.20;;;16.70;59.90;;;;;;4209492;27;20063;-42
2024/01/12 11:56:58;;;;;;;13.00;2.58;;;16.70;59.90;;;;;;4206007;28;20063;-41
2024/01/12 11:59:39;;;;;;;15.35;3.10;;;16.70;60.00;;;;;;4221176;27;20054;-41
2024/01/12 12:02:21;;;;;;;8.27;2.33;;;16.60;60.10;;;;;;4222174;27;20766;-45
2024/01/12 12:05:06;;;;;;;11.25;2.45;;;16.60;60.20;;;;;;4222291;27;20074;-45
2024/01/12 12:07:48;;;;;;;10.75;2.28;;;16.60;60.30;;;;;;4206797;28;20104;-45
2024/01/12 12:10:29;;;;;;;15.00;2.40;;;16.50;60.50;;;;;;4205093;27;20066;-45
2024/01/12 12:13:14;;;;;;;14.75;2.35;;;16.40;60.70;;;;;;4213310;27;20478;-42
2024/01/12 12:15:55;;;;;;;7.38;1.90;;;16.40;60.90;;;;;;4204084;28;20513;-41
2024/01/12 12:18:36;;;;;;;8.43;2.33;;;16.50;61.00;;;;;;4207319;27;20054;-41
2024/01/12 12:21:18;;;;;;;20.15;3.13;;;16.50;60.80;;;;;;4202963;28;20059;-40
2024/01/12 12:24:00;;;;;;;14.80;2.28;;;16.60;60.50;;;;;;4217343;27;20082;-41
2024/01/12 12:26:42;;;;;;;6.38;1.92;;;16.60;60.60;;;;;;4201290;27;20758;-45
2024/01/12 12:29:23;;;;;;;17.38;2.40;;;16.70;60.50;;;;;;4205368;27;20510;-41
2024/01/12 12:32:04;;;;;;;17.35;2.92;;;16.80;60.10;;;;;;4204862;28;20066;-42
2024/01/12 12:34:45;;;;;;;18.23;3.17;;;16.80;59.80;;;;;;4218580;27;20502;-41
2024/01/12 12:37:28;;;;;;;;;;;16.80;59.80;;;;;;4203167;28;20189;-41
2024/01/12 12:40:11;;;;;;;12.68;2.45;;;16.90;59.80;;;;;;4211437;27;19976;-41
2024/01/12 12:42:52;;;;;;;13.65;2.60;;;16.80;59.60;;;;;;4202769;27;20087;-43
2024/01/12 12:45:33;;;;;;;13.23;2.75;;;16.80;59.70;;;;;;4211088;27;20092;-42
2024/01/12 12:48:15;;;;;;;13.05;2.30;;;16.80;59.90;;;;;;4205994;27;20105;-51
2024/01/12 12:50:56;;;;;;;12.70;2.10;;;16.80;60.00;;;;;;4210476;27;20120;-43
2024/01/12 12:53:38;;;;;;;11.40;2.13;;;16.70;60.10;;;;;;4205106;27;20051;-43
2024/01/12 12:56:19;;;;;;;14.75;2.63;;;16.80;59.90;;;;;;4209410;27;20517;-45
2024/01/12 12:59:01;;;;;;;16.08;2.65;;;16.80;59.80;;;;;;4201159;28;20507;-45
2024/01/12 13:01:42;;;;;;;13.27;2.22;;;16.80;59.70;;;;;;4216017;27;20058;-46
2024/01/12 13:04:25;;;;;;;;;;;16.80;59.80;;;;;;4204069;27;20082;-45
2024/01/12 13:07:06;;;;;;;16.75;2.97;;;16.80;59.80;;;;;;4217929;27;20401;-46
2024/01/12 13:09:49;;;;;;;;;;;16.90;59.70;;;;;;4218070;27;20501;-42
2024/01/12 13:12:30;;;;;;;16.08;2.90;;;16.90;59.60;;;;;;4201857;28;20387;-42
2024/01/12 13:15:12;;;;;;;;;;;16.90;59.60;;;;;;4218829;27;20046;-43
2024/01/12 13:17:52;;;;;;;12.15;3.30;;;16.80;59.80;;;;;;4193589;27;19931;-43
2024/01/12 13:20:34;;;;;;;14.90;2.00;;;16.70;60.10;;;;;;4192242;28;20196;-43
2024/01/12 13:23:17;;;;;;;14.52;3.15;;;16.60;60.40;;;;;;4191746;28;20055;-44
2024/01/12 13:25:59;;;;;;;11.68;2.78;;;16.60;60.70;;;;;;4191431;27;20090;-42
2024/01/12 13:28:40;;;;;;;9.20;2.05;;;16.60;60.90;;;;;;4199021;28;20104;-43
2024/01/12 13:31:21;;;;;;;12.75;2.63;;;16.60;60.90;;;;;;4214479;27;20042;-43
2024/01/12 13:34:02;;;;;;;11.75;3.25;;;16.50;61.00;;;;;;4202168;28;20051;-43
2024/01/12 13:36:47;;;;;;;12.23;2.35;;;16.50;61.20;;;;;;4202755;28;20189;-44
2024/01/12 13:39:28;;;;;;;8.35;2.03;;;16.40;61.30;;;;;;4213391;27;20063;-42
2024/01/12 13:42:11;;;;;;;16.73;2.13;;;16.40;61.40;;;;;;4209137;27;20051;-42
2024/01/12 13:44:52;;;;;;;14.38;2.75;;;16.30;61.50;;;;;;4217854;27;20062;-42
2024/01/12 13:47:33;;;;;;;8.95;2.55;;;16.30;61.70;;;;;;4217024;27;20055;-42
2024/01/12 13:50:14;;;;;;;11.23;5.03;;;16.20;61.80;;;;;;4201696;28;20070;-44
2024/01/12 13:52:59;;;;;;;9.35;2.20;;;16.10;62.40;;;;;;4202120;27;20129;-45
2024/01/12 13:55:41;;;;;;;11.15;2.28;;;16.10;63.10;;;;;;4210137;27;20151;-48
2024/01/12 13:58:24;;;;;;;12.25;1.95;;;16.00;63.50;;;;;;4196507;27;20084;-47